RGV Ugly Sweater 5k Run

Age Group Results

December 23, 2017


Endurance Splits, LLC www.endurancesplits.com


Men: 0- 0 1-14 15-19 20-29 30-39 40-49 50-59 60-99
Women: 1-14 15-19 20-29 30-39 40-49 50-59 60-99

5k

Top

Female 14 and Under

Place Name City Bib No Age Overall Total Time Pace
1 Alondra Moreno 299 12 63 26:55.9 8:41/M
Top

Female 15 to 19

Place Name City Bib No Age Overall Total Time Pace
1 Alyssa Galvan 265 15 22 22:22.0 7:13/M
2 Jade Hartman 154 19 104 29:54.6 9:39/M
3 Arianna Benavides 84 17 144 35:13.1 11:22/M
4 Giselle Arroyo McAllen 3 16 159 37:42.7 12:10/M
5 Aleya Campos 289 19 181 40:50.3 13:10/M
Top

Female 20 to 29

Place Name City Bib No Age Overall Total Time Pace
1 Dana Cerda Monte Alto 63 21 20 21:44.9 7:01/M
2 Lucero Espolyar #Runfast 14 28 24 22:45.2 7:20/M
3 Kaycee Liendo 31 27 28 23:27.9 7:34/M
4 Kaela De la Rosa 304 21 36 24:36.7 7:56/M
5 ISNELIA FERNANDEZ RIO BRAVO 229 28 38 25:10.9 8:07/M
6 Savana Overly 52 22 41 25:19.6 8:10/M
7 Lindsey Nelson 217 27 45 25:28.7 8:13/M
8 Cynthia Martinez 245 20 52 26:09.0 8:26/M
9 Elizabeth Garcia MCALLEN 70 22 53 26:17.1 8:29/M
10 Jocelyn Grothe 227 27 56 26:25.1 8:31/M
11 Felicia Vazquez Alton 38 25 60 26:37.1 8:35/M
12 Lizeth Fabela 294 20 67 27:19.5 8:49/M
13 debra martinez 47 26 71 27:37.9 8:55/M
14 robin martinez Pharr 257 28 74 27:42.0 8:56/M
15 Dee Guevara 201 29 81 28:07.6 9:04/M
16 Edna Navarro 290 26 87 28:34.4 9:13/M
17 Klarissa Gonzalez 99 23 93 29:00.4 9:21/M
18 Lianna De La Cruz 223 27 97 29:09.0 9:24/M
19 Lauren McCue 33 24 100 29:25.7 9:29/M
20 Reyna Vallin Mercedes 169 25 106 30:17.7 9:46/M
21 Bienda Vargas 262 28 108 30:33.4 9:51/M
22 Nicole Luna 105 29 112 30:51.5 9:57/M
23 Emily Cerda Palmview 30 27 116 31:39.4 10:13/M
24 Cadence Vela 194 28 126 32:44.3 10:34/M
25 Catherine Sanchez 27 26 127 32:44.3 10:34/M
26 Cindy Sierra Pharr 118 27 135 33:29.4 10:48/M
27 Georgina Villegas McAllen 65 27 137 34:06.8 11:00/M
28 Anali Bravo 171 28 143 35:09.4 11:20/M
29 Patricia Moncivais Pharr 266 22 163 38:06.5 12:17/M
30 Cristina Reyes Pharr 267 23 164 38:08.2 12:18/M
31 Liliana Hinojosa Cedar Hill 133 29 165 38:17.7 12:21/M
32 Ana Samaniego Mission 206 28 176 40:23.7 13:02/M
33 Genesia Reyna Brownsville 127 29 180 40:50.1 13:10/M
34 sonia escobedo 247 24 186 41:39.1 13:26/M
35 Dania Gutierrez 249 23 187 41:39.1 13:26/M
36 Bianca Danielle Peralez Mission 95 25 195 43:19.9 13:58/M
37 Bianca Del Bosque 102 27 199 45:41.1 14:44/M
38 Cassandra Saldana 26 28 210 49:10.1 15:52/M
39 Paloma Salinas Rio Grande City 170 26 213 53:31.8 17:16/M
40 SAMANTHA CASAS EDINBURG EDINBURG 22 28 214 53:55.8 17:24/M
41 Isenia Galaviz Mission 109 29 215 54:17.8 17:31/M
42 Erica Heller 142 29 224 1:00:45.6 19:36/M
Top

Female 30 to 39

Place Name City Bib No Age Overall Total Time Pace
1 Nereyda Ortiz Alton 62 31 26 23:05.0 7:27/M
2 Laura Treviño Mercedes 204 38 35 24:34.0 7:55/M
3 Monica Gallegos 178 30 44 25:23.5 8:11/M
4 Erika Severson 107 39 59 26:30.8 8:33/M
5 Mercedes Gonzalez McAllen 253 36 68 27:23.5 8:50/M
6 Susana Villarreal 11 36 72 27:39.8 8:55/M
7 Lupita Reyna Edinburg EDINBURG 17 32 75 27:42.0 8:56/M
8 Cindy Villarreal Sullivan city 6 35 77 27:57.6 9:01/M
9 Valerie Hernandez San Juan SAN JUAN 260 38 80 28:03.7 9:03/M
10 Cristina Vasquez Mission MISSION 236 31 83 28:22.2 9:09/M
11 Erica Martinez Pharr 67 33 85 28:32.3 9:12/M
12 Michelle Cantu McAllen MCALLEN 10 38 86 28:32.7 9:12/M
13 Diana Gomez 297 33 92 29:00.0 9:21/M
14 Myra Perez edinburg 205 34 95 29:04.5 9:23/M
15 Suezanne Martin McAllen 186 36 96 29:08.0 9:24/M
16 Kimberly Wahl McAllen 58 31 102 29:33.0 9:32/M
17 Claudia Rodriguez Mission 167 38 114 31:25.4 10:08/M
18 Janell Valles Weslaco 97 34 115 31:26.7 10:08/M
19 Michelle Pelham Edinburg EDINBURG 15 34 117 31:46.7 10:15/M
20 Belinda Martinez Los Fresnos 116 34 119 32:01.1 10:20/M
21 Denise De Los Santos 115 33 120 32:09.5 10:22/M
22 Casey Conklin 32 30 121 32:17.0 10:25/M
23 Kelly Magnuson Mcallen 148 39 122 32:23.6 10:27/M
24 Neyda Ramirez 113 32 124 32:39.2 10:32/M
25 Kory Papakostas McAllen 196 34 128 32:45.1 10:34/M
26 Jessie De la Cruz 282 33 130 32:59.8 10:38/M
27 Sandy valdez Harlingen 34 38 134 33:19.1 10:45/M
28 Yuri Barrea 306 33 136 33:45.3 10:53/M
29 Sylvia Guerra McAllen MCALLEN 209 31 138 34:16.9 11:03/M
30 Isela Singleterry Alamo 166 38 140 34:31.3 11:08/M
31 Janie Garces 158 39 142 35:06.5 11:19/M
32 Cindy Vargas Brownsville 20 30 145 35:23.2 11:25/M
33 Leslie De Leon Mission 79 37 146 36:17.0 11:42/M
34 Ruby De la Garza 141 38 153 36:55.4 11:55/M
35 Amber Peterson Edinburg 146 35 154 37:01.5 11:56/M
36 Gabriela Rodriguez Pharr 101 33 156 37:18.1 12:02/M
37 Diana Stansberry Edinburg 198 36 158 37:32.7 12:06/M
38 Mercedez Cahue Mission 8 38 167 38:25.0 12:24/M
39 Cynthia Villegas McAllen 278 37 169 38:44.3 12:30/M
40 Juanita Avalos San juan 216 35 170 38:47.1 12:31/M
41 Isela Perez 234 36 171 39:33.3 12:45/M
42 Laura Gonzalez 303 39 173 39:35.9 12:46/M
43 Maria Chavez 240 38 177 40:37.4 13:06/M
44 Erica Gonzalez Edinburg EDINBURG 138 32 179 40:41.3 13:07/M
45 Joanna Ledezma 222 31 191 42:24.3 13:41/M
46 Yvonne Saenz 256 33 193 42:28.6 13:42/M
47 Joanna Coronado Mercedes 120 32 198 45:36.4 14:43/M
48 Delia Orellana Edinburg 285 35 202 46:45.6 15:05/M
49 Elizabeth Lopez Edinburg EDINBURG 210 38 209 49:07.3 15:51/M
50 Danielle Rodriguez Palmhurst 110 31 216 54:18.0 17:31/M
51 Ellen Chen 140 36 220 59:55.5 19:20/M
52 Kelley Vela 190 38 223 1:00:44.8 19:35/M
Top

Female 40 to 49

Place Name City Bib No Age Overall Total Time Pace
1 Sylvia Trevino Edinburg 89 48 18 21:02.4 6:47/M
2 Monica Ortiz Edinburg 152 42 49 26:02.7 8:24/M
3 MariaLuisa Salinas 108 47 58 26:29.9 8:33/M
4 Tyra Greene McAllen 259 43 61 26:45.3 8:38/M
5 Diana Rodriguez San Juan 151 40 70 27:32.5 8:53/M
6 Denide Espinosa 275 43 76 27:54.0 9:00/M
7 Fatima Navarro MISSION 82 43 79 28:03.5 9:03/M
8 Monica Garcia Weslaco 193 43 88 28:37.9 9:14/M
9 Judith Muñoz Edinburg 156 40 89 28:48.2 9:17/M
10 Nancy Valles McAllen,Tx MCALLEN 137 49 101 29:28.3 9:30/M
11 Mary Rios McAllen 286 41 107 30:29.6 9:50/M
12 Dolores Garcia Roma ROMA 176 47 113 30:56.1 9:59/M
13 Esmer Gonzalez 114 45 125 32:39.8 10:32/M
14 Linda Uribe 273 43 131 33:09.2 10:42/M
15 santa Garcia SAN BENITO 56 45 139 34:19.3 11:04/M
16 Rosario Benavides 83 41 141 35:00.3 11:17/M
17 Gloria Amador Palmview 81 49 148 36:24.5 11:45/M
18 Lidia Arroyo McAllen 1 41 150 36:40.0 11:50/M
19 Dora Alvarez McAllen 112 42 157 37:20.0 12:03/M
20 Doris Rios Palmhurst PALMHURST 177 45 161 37:52.1 12:13/M
21 Michelle Guerra Mercedez 269 43 166 38:18.1 12:21/M
22 Mari Morin Edinburg 61 49 168 38:38.1 12:28/M
23 Ayde Pena Mcallen 106 46 200 45:42.2 14:45/M
24 Veronica Flores Weslaco 71 44 208 49:00.5 15:48/M
25 Diana Sierra 121 48 212 52:17.8 16:52/M
Top

Female 50 to 59

Place Name City Bib No Age Overall Total Time Pace
1 Sandy Overly Mission 53 56 42 25:20.5 8:10/M
2 Linette Linsangam 268 51 99 29:24.2 9:29/M
3 Mary Alice Torres 64 53 109 30:44.1 9:55/M
4 Sylvia Salamanca Alton 94 50 110 30:46.2 9:55/M
5 Patricia Garcia McAllen 68 56 133 33:16.5 10:44/M
6 Lucy Olvera La Feria 35 53 147 36:20.0 11:43/M
7 Barbara Wilkins McAllen 174 57 149 36:29.3 11:46/M
8 Yolanda Rangel Edinburg 160 55 152 36:47.8 11:52/M
9 Lupita Morales Mission MISSION 43 50 160 37:45.4 12:11/M
10 EDALIA GARZA Weslaco WESLACO 36 50 174 39:40.3 12:48/M
11 RINA CASAS EDINBURG EDINBURG 25 53 183 41:10.6 13:17/M
12 Irma Adame La Blanca LA BLANCA 42 55 185 41:35.2 13:25/M
13 isabel handy Donna DONNA 57 56 188 42:04.3 13:34/M
14 Delia Garcia SAN BENITO 55 55 194 42:46.6 13:48/M
15 Sylvia Rogel Mission 208 50 201 46:09.8 14:53/M
16 Melisa Molano Mcallen 161 52 203 47:18.5 15:15/M
17 Isabel Cuevas 28 53 204 47:58.2 15:28/M
18 Gina Rivera Mission 93 52 211 49:29.7 15:58/M
Top

Female 60 and Over

Place Name City Bib No Age Overall Total Time Pace
1 Dolores Vela Mcallen 150 62 184 41:32.4 13:24/M
2 Christine Peterson Edinburg 147 61 197 44:07.4 14:14/M
3 Cindy Spikes 164 62 218 54:24.1 17:33/M
4 Debbie Heller 188 64 225 1:00:47.7 19:36/M
Top

Male No Age Provided

Place Name City Bib No Age Overall Total Time Pace
1 Unknown Partic. 394 394 155 37:15.8 12:01/M
Top

Male 14 and Under

Place Name City Bib No Age Overall Total Time Pace
1 Ryan Whalen 302 14 9 19:14.0 6:12/M
2 Matt Gonzalez 200 14 13 19:48.8 6:23/M
3 MARIANO BARRERA MISSION 230 14 16 20:45.0 6:42/M
4 Nicholas Lopez Edinburg EDINBURG 211 10 37 25:02.3 8:05/M
5 Jacob Garza Los fresnos 274 11 43 25:22.0 8:11/M
6 Luis Fabela 298 13 66 27:15.3 8:47/M
7 Emmanuel Navarro 293 14 182 40:51.6 13:11/M
8 Maddox Heller Mission 191 14 222 59:56.4 19:20/M
Top

Male 15 to 19

Place Name City Bib No Age Overall Total Time Pace
1 frijol castro 90001 16 1 16:27.8 5:18/M
2 Albino Rodriguez Mercedes 168 15 2 16:33.7 5:20/M
3 Dominik Medrano Weslaco 157 16 4 17:14.2 5:34/M
4 Irving Heredia 301 16 5 17:45.4 5:44/M
5 RJ Flores 66 15 7 18:47.7 6:04/M
6 David Ybarra 90003 16 12 19:36.8 6:19/M
7 Juan Trevino Edinburg 239 18 15 20:23.5 6:35/M
8 David Corpus Edinburg 96 17 17 20:58.0 6:46/M
9 ALEJANDRO BARRERA MISSION 231 15 51 26:05.8 8:25/M
Top

Male 20 to 29

Place Name City Bib No Age Overall Total Time Pace
1 Colin Reisenauer 51 21 3 16:56.1 5:28/M
2 Isaac Merlin 308 25 6 17:49.6 5:45/M
3 Omar Doria 9 29 8 19:00.4 6:08/M
4 Adam Gracia McAllen 90 25 14 20:18.1 6:33/M
5 Jose Aldape 228 24 19 21:28.4 6:55/M
6 Johnny Ray Hinojosa Socorro 258 26 21 21:57.6 7:05/M
7 Victor Morales Mcallen 149 29 23 22:34.0 7:17/M
8 Jack Herrera 73 26 25 22:51.2 7:22/M
9 MAURICIO GARCIA 49 26 29 23:54.3 7:43/M
10 Ricardo Garza 48 26 31 24:06.0 7:46/M
11 Ricky Santoscoy 100 24 34 24:27.1 7:53/M
12 Roman Semenyuk 218 29 64 26:58.7 8:42/M
13 Matthew Garcia San Antonio 80 26 94 29:04.3 9:23/M
14 Arnel Alanis mission 13 25 98 29:19.6 9:27/M
15 Estevan Gomez 153 25 105 29:55.6 9:39/M
16 Job Saenz Pharr PHARR 76 29 190 42:23.8 13:40/M
17 Benito Munoz 29 26 205 48:30.2 15:39/M
18 Kobe Heller 189 20 221 59:56.1 19:20/M
Top

Male 30 to 39

Place Name City Bib No Age Overall Total Time Pace
1 JC Sanez 283 31 11 19:19.0 6:14/M
2 Michael Villarreal McAllen 59 39 30 23:58.7 7:44/M
3 Leo Vargas McAllen 263 37 39 25:11.9 8:07/M
4 Sergio Enrique Lopez Mcallen 255 32 55 26:19.9 8:29/M
5 Michael Murray 242 38 62 26:53.4 8:40/M
6 JD De leon Mcallen 192 35 73 27:40.3 8:55/M
7 J Gilberto Rodriguez San Juan 77 39 82 28:10.6 9:05/M
8 victor sustaita San Juan 165 30 90 28:48.3 9:17/M
9 Joey Maldonado 144 35 111 30:49.8 9:56/M
10 Angel Carreon 243 33 123 32:32.3 10:30/M
11 Caesar Alvarado Hidalgo 241 38 129 32:59.0 10:38/M
12 Fernando Perez 235 31 172 39:33.9 12:45/M
13 Rene Hernandez San Juan SAN JUAN 261 31 175 39:41.1 12:48/M
14 Manuel Olivarez Jr Alamo 130 39 178 40:37.4 13:06/M
15 Carlos Ortega San Juan 78 36 189 42:12.8 13:37/M
16 Harrison McPherson 238 37 207 48:50.6 15:45/M
17 Brett Heller 139 34 219 59:55.3 19:20/M
Top

Male 40 to 49

Place Name City Bib No Age Overall Total Time Pace
1 Rigoberto Guerrero Mission 119 48 32 24:07.6 7:47/M
2 Carlos Sanchez mcallen 91 48 33 24:08.0 7:47/M
3 John Vasquez 254 48 46 25:33.8 8:15/M
4 Pablo Barcena Pharr 264 48 50 26:05.4 8:25/M
5 Jaime Guerra Mercedes 270 49 54 26:17.9 8:29/M
6 Rick Carrera McAllen 219 46 91 28:50.0 9:18/M
7 Omar Salinas McAllen 5 47 103 29:46.8 9:36/M
8 Roy Reyna 159 48 151 36:47.3 11:52/M
9 Armando Sanchez McAllen,Tx 2 44 196 43:55.8 14:10/M
10 Armando Garcia McAllen 251 45 206 48:37.7 15:41/M
Top

Male 50 to 59

Place Name City Bib No Age Overall Total Time Pace
1 CARLOS JAVIER CABELLO 232 53 27 23:06.9 7:27/M
2 Orlando Vazquez 103 55 40 25:15.1 8:09/M
3 REUBEN GARZA Weslaco WESLACO 37 52 47 25:45.4 8:18/M
4 Michael Garcia PHARR 69 58 48 25:57.5 8:22/M
5 Keith Spikes Mission 162 55 57 26:27.7 8:32/M
6 JOSE LUIS CABELLO MISSION 233 51 69 27:29.7 8:52/M
7 Saul Colmenero 287 52 78 27:59.8 9:02/M
8 Frank Arredondo 276 58 84 28:25.1 9:10/M
9 Ralph Morin Edinburg 60 53 162 37:59.6 12:15/M
10 Jesus Miranda Penitas 4 55 192 42:27.8 13:42/M
Top

Male 60 and Over

Place Name City Bib No Age Overall Total Time Pace
1 Benito Chacon 295 60 10 19:15.1 6:13/M
2 Raul Deleon 296 60 65 27:04.1 8:44/M
3 Argelio Jasso 90006 61 118 31:55.8 10:18/M
4 Joe Garza Mission 7 61 132 33:15.9 10:44/M
5 Larry Prater 132 68 217 54:18.1 17:31/M